createdAt,value
2022-08-02T00:01:01.048Z,94900.25
2022-08-02T00:03:27.964Z,94888.94
2022-08-02T00:05:55.134Z,94882.19
2022-08-02T00:08:22.901Z,94891.41
2022-08-02T00:10:52.662Z,94888.56
2022-08-02T00:13:19.669Z,94893.66
2022-08-02T00:15:48.003Z,94911.38
2022-08-02T00:18:15.081Z,94874.59
2022-08-02T00:20:42.000Z,94882.53
2022-08-02T00:23:08.960Z,94876.22
2022-08-02T00:25:36.900Z,94882.13
2022-08-02T00:28:27.292Z,94874.53
2022-08-02T00:30:55.563Z,94848.38
2022-08-02T00:34:04.879Z,94860.47
2022-08-02T00:36:09.497Z,94841.44
2022-08-02T00:38:36.375Z,94860.88
2022-08-02T00:41:04.347Z,94886.66
2022-08-02T00:43:31.906Z,94851.47
2022-08-02T00:46:03.754Z,94842.50
2022-08-02T00:48:30.915Z,94876.59
2022-08-02T00:50:59.302Z,94844.75
2022-08-02T00:53:26.313Z,94880.31
2022-08-02T00:55:54.310Z,94862.75
2022-08-02T00:58:21.738Z,94842.34
2022-08-02T01:00:48.706Z,94839.09
2022-08-02T01:03:15.581Z,94870.97
2022-08-02T01:06:09.179Z,94836.22
2022-08-02T01:08:31.760Z,94840.56
2022-08-02T01:10:59.232Z,94836.88
2022-08-02T01:13:26.824Z,94823.22
2022-08-02T01:16:04.547Z,94872.69
2022-08-02T01:18:39.447Z,94843.25
2022-08-02T01:21:35.799Z,94869.91
2022-08-02T01:24:21.747Z,94833.22
2022-08-02T01:27:11.333Z,94854.91
2022-08-02T01:29:43.999Z,94824.63
2022-08-02T01:32:19.194Z,94824.63
2022-08-02T01:34:57.852Z,94836.28
2022-08-02T01:37:40.164Z,94859.38
2022-08-02T01:40:14.704Z,94832.81
2022-08-02T01:42:47.765Z,94847.13
2022-08-02T01:45:15.403Z,94849.16
2022-08-02T01:47:43.883Z,94840.97
2022-08-02T01:50:18.026Z,94855.69
2022-08-02T01:52:53.451Z,94850.41
2022-08-02T01:55:56.853Z,94854.69
2022-08-02T01:58:27.703Z,94836.06
2022-08-02T02:00:58.275Z,94841.41
2022-08-02T02:03:26.841Z,94833.00
2022-08-02T02:05:57.566Z,94843.41
2022-08-02T02:08:31.735Z,94826.25
2022-08-02T02:12:09.653Z,94863.09
2022-08-02T02:13:49.377Z,94867.59
2022-08-02T02:16:17.078Z,94877.41
2022-08-02T02:18:45.482Z,94865.13
2022-08-02T02:21:13.151Z,94827.53
2022-08-02T02:23:40.791Z,94842.22
2022-08-02T02:26:11.740Z,94830.38
2022-08-02T02:28:48.082Z,94833.84
2022-08-02T02:31:19.509Z,94844.69
2022-08-02T02:33:55.156Z,94816.47
2022-08-02T02:36:23.375Z,94794.19
2022-08-02T02:38:53.224Z,94793.56
2022-08-02T02:41:21.766Z,94827.72
2022-08-02T02:43:49.831Z,94811.38
2022-08-02T02:46:18.586Z,94795.66
2022-08-02T02:48:45.690Z,94814.06
2022-08-02T02:51:14.649Z,94822.66
2022-08-02T02:54:32.848Z,94819.16
2022-08-02T02:56:30.927Z,94803.44
2022-08-02T02:59:00.742Z,94819.38
2022-08-02T03:01:35.887Z,94824.22
2022-08-02T03:04:16.238Z,94829.75
2022-08-02T03:06:43.290Z,94806.16
2022-08-02T03:09:11.520Z,94848.75
2022-08-02T03:11:40.058Z,94848.34
2022-08-02T03:14:12.232Z,94847.53
2022-08-02T03:16:47.320Z,94819.06
2022-08-02T03:19:15.276Z,94809.00
2022-08-02T03:21:43.930Z,94839.69
2022-08-02T03:24:13.754Z,94806.28
2022-08-02T03:26:41.801Z,94826.59
2022-08-02T03:29:10.281Z,94823.72
2022-08-02T03:31:41.951Z,94815.91
2022-08-02T03:34:08.965Z,94801.16
2022-08-02T03:36:37.659Z,94808.09
2022-08-02T03:39:05.571Z,94824.44
2022-08-02T03:41:34.368Z,94840.25
2022-08-02T03:44:02.484Z,94818.38
2022-08-02T03:46:40.393Z,94828.19
2022-08-02T03:49:08.637Z,94810.53
2022-08-02T03:51:36.346Z,94818.88
2022-08-02T03:54:04.050Z,94794.50
2022-08-02T03:56:31.719Z,94816.63
2022-08-02T03:59:12.569Z,94831.31
2022-08-02T04:01:40.507Z,94830.44
2022-08-02T04:04:08.355Z,94808.56
2022-08-02T04:06:35.279Z,94805.78
2022-08-02T04:09:07.107Z,94826.09
2022-08-02T04:11:34.067Z,94814.19
2022-08-02T04:14:11.321Z,94831.78
2022-08-02T04:16:59.962Z,94842.28
2022-08-02T04:19:32.010Z,94832.28
2022-08-02T04:22:06.532Z,94821.09
2022-08-02T04:24:40.349Z,94811.25
2022-08-02T04:27:49.359Z,94841.94
2022-08-02T04:29:57.993Z,94849.53
2022-08-02T04:32:25.324Z,94845.19
2022-08-02T04:35:18.261Z,94841.94
2022-08-02T04:38:05.538Z,94872.81
2022-08-02T04:40:27.010Z,94850.81
2022-08-02T04:42:54.153Z,94856.88
2022-08-02T04:45:22.124Z,94854.91
2022-08-02T04:48:02.377Z,94878.09
2022-08-02T04:50:31.011Z,94861.31
2022-08-02T04:52:57.944Z,94852.34
2022-08-02T04:55:28.983Z,94862.59
2022-08-02T04:57:58.134Z,94861.56
2022-08-02T05:00:27.670Z,94861.84
2022-08-02T05:02:57.293Z,94900.38
2022-08-02T05:06:18.840Z,94895.47
2022-08-02T05:08:52.878Z,94900.25
2022-08-02T05:11:20.781Z,94850.00
2022-08-02T05:13:58.522Z,94872.88
2022-08-02T05:16:31.356Z,94870.66
2022-08-02T05:19:00.463Z,94857.41
2022-08-02T05:21:33.899Z,94882.19
2022-08-02T05:24:00.712Z,94847.13
2022-08-02T05:26:27.626Z,94857.44
2022-08-02T05:28:54.623Z,94853.63
2022-08-02T05:31:21.520Z,94867.56
2022-08-02T05:33:48.423Z,94845.59
2022-08-02T05:36:15.853Z,94843.69
2022-08-02T05:38:42.759Z,94854.00
2022-08-02T05:41:19.417Z,94865.00
2022-08-02T05:43:47.650Z,94837.84
2022-08-02T05:46:14.667Z,94848.72
2022-08-02T05:48:41.537Z,94833.44
2022-08-02T05:51:34.965Z,94848.22
2022-08-02T05:54:20.103Z,94874.88
2022-08-02T05:57:05.464Z,94844.81
2022-08-02T05:59:45.813Z,94824.41
2022-08-02T06:02:30.824Z,94830.72
2022-08-02T06:05:20.371Z,94832.38
2022-08-02T06:07:50.168Z,94850.78
2022-08-02T06:10:21.789Z,94861.84
2022-08-02T06:13:17.749Z,94876.97
2022-08-02T06:15:52.857Z,94839.53
2022-08-02T06:18:27.949Z,94845.53
2022-08-02T06:22:31.640Z,94830.34
2022-08-02T06:23:57.897Z,94830.03
2022-08-02T06:26:27.863Z,94834.91
2022-08-02T06:28:57.689Z,94832.44
2022-08-02T06:31:24.974Z,94822.22
2022-08-02T06:33:52.311Z,94856.94
2022-08-02T06:36:37.240Z,94853.66
2022-08-02T06:39:10.528Z,94848.72
2022-08-02T06:41:45.192Z,94850.50
2022-08-02T06:44:45.691Z,94837.56
2022-08-02T06:47:11.113Z,94864.44
2022-08-02T06:49:51.751Z,94833.31
2022-08-02T06:52:27.103Z,94855.56
2022-08-02T06:54:57.211Z,94841.78
2022-08-02T06:57:24.261Z,94837.63
2022-08-02T06:59:51.367Z,94819.13
2022-08-02T07:02:18.393Z,94847.22
2022-08-02T07:04:45.262Z,94839.31
2022-08-02T07:07:12.164Z,94828.19
2022-08-02T07:09:39.081Z,94835.63
2022-08-02T07:12:23.105Z,94816.97
2022-08-02T07:14:50.007Z,94834.38
2022-08-02T07:17:17.369Z,94833.63
2022-08-02T07:19:44.999Z,94833.63
2022-08-02T07:22:13.291Z,94828.56
2022-08-02T07:24:57.892Z,94819.66
2022-08-02T07:27:25.553Z,94861.88
2022-08-02T07:29:53.233Z,94803.94
2022-08-02T07:32:26.589Z,94843.22
2022-08-02T07:34:55.477Z,94859.63
2022-08-02T07:37:53.150Z,94815.56
2022-08-02T07:40:21.013Z,94843.75
2022-08-02T07:42:52.426Z,94820.69
2022-08-02T07:45:22.888Z,94812.47
2022-08-02T07:47:57.811Z,94830.25
2022-08-02T07:50:25.163Z,94834.06
2022-08-02T07:52:57.286Z,94835.72
2022-08-02T07:55:39.086Z,94840.28
2022-08-02T07:58:11.013Z,94869.34
2022-08-02T08:00:41.096Z,94838.59
2022-08-02T08:03:08.188Z,94828.47
2022-08-02T08:05:35.217Z,94829.72
2022-08-02T08:08:02.424Z,94795.34
2022-08-02T08:10:35.578Z,94827.41
2022-08-02T08:13:02.542Z,94854.38
2022-08-02T08:15:29.520Z,94854.44
2022-08-02T08:17:56.551Z,94840.69
2022-08-02T08:20:23.716Z,94825.34
2022-08-02T08:22:59.823Z,94807.75
2022-08-02T08:25:27.772Z,94833.31
2022-08-02T08:27:56.251Z,94831.50
2022-08-02T08:30:23.244Z,94860.31
2022-08-02T08:32:50.518Z,94838.81
2022-08-02T08:35:17.996Z,94846.47
2022-08-02T08:37:45.131Z,94840.69
2022-08-02T08:40:13.133Z,94851.84
2022-08-02T08:42:46.593Z,94847.75
2022-08-02T08:45:13.568Z,94837.34
2022-08-02T08:47:42.553Z,94847.81
2022-08-02T08:50:20.091Z,94834.69
2022-08-02T08:53:04.660Z,94832.69
2022-08-02T08:55:34.814Z,94821.66
2022-08-02T08:58:03.935Z,94826.47
2022-08-02T09:00:33.930Z,94825.03
2022-08-02T09:03:10.831Z,94816.50
2022-08-02T09:05:39.772Z,94834.19
2022-08-02T09:08:07.363Z,94852.06
2022-08-02T09:10:45.935Z,94851.81
2022-08-02T09:13:38.019Z,94819.91
2022-08-02T09:16:11.425Z,94843.94
2022-08-02T09:18:47.204Z,94842.41
2022-08-02T09:21:17.260Z,94829.34
2022-08-02T09:23:50.092Z,94842.19
2022-08-02T09:26:20.489Z,94811.66
2022-08-02T09:28:52.561Z,94801.50
2022-08-02T09:31:22.967Z,94814.56
2022-08-02T09:33:58.729Z,94838.97
2022-08-02T09:36:28.355Z,94833.94
2022-08-02T09:39:04.369Z,94821.53
2022-08-02T09:41:41.552Z,94839.63
2022-08-02T09:44:21.869Z,94839.38
2022-08-02T09:46:48.931Z,94835.59
2022-08-02T09:49:18.979Z,94820.38
2022-08-02T09:51:46.869Z,94851.72
2022-08-02T09:54:20.250Z,94812.66
2022-08-02T09:56:51.422Z,94826.25
2022-08-02T09:59:21.850Z,94841.31
2022-08-02T10:01:51.517Z,94806.25
2022-08-02T10:04:32.062Z,94808.75
2022-08-02T10:07:04.583Z,94819.13
2022-08-02T10:09:32.972Z,94815.63
2022-08-02T10:12:08.593Z,94804.84
2022-08-02T10:14:36.200Z,94783.78
2022-08-02T10:17:07.040Z,94779.47
2022-08-02T10:20:01.921Z,94781.09
2022-08-02T10:22:25.585Z,94771.06
2022-08-02T10:24:53.814Z,94824.28
2022-08-02T10:27:21.629Z,94828.66
2022-08-02T10:29:54.286Z,94824.59
2022-08-02T10:32:37.791Z,94804.56
2022-08-02T10:35:19.593Z,94773.50
2022-08-02T10:38:03.675Z,94822.13
2022-08-02T10:40:50.700Z,94823.72
2022-08-02T10:43:32.791Z,94818.91
2022-08-02T10:46:34.393Z,94805.38
2022-08-02T10:52:02.759Z,94811.19
2022-08-02T10:54:37.276Z,94802.63
2022-08-02T10:57:19.337Z,94801.03
2022-08-02T10:59:46.971Z,94778.34
2022-08-02T11:02:14.663Z,94763.22
2022-08-02T11:04:41.737Z,94811.53
2022-08-02T11:07:14.532Z,94812.94
2022-08-02T11:09:43.663Z,94794.28
2022-08-02T11:12:16.497Z,94776.19
2022-08-02T11:14:47.587Z,94778.69
2022-08-02T11:17:17.264Z,94757.28
2022-08-02T11:20:09.390Z,94807.28
2022-08-02T11:22:36.703Z,94765.94
2022-08-02T11:26:02.629Z,94759.16
2022-08-02T11:28:25.454Z,94751.22
2022-08-02T11:31:00.601Z,94747.53
2022-08-02T11:33:33.369Z,94794.53
2022-08-02T11:36:07.569Z,94760.88
2022-08-02T11:38:34.632Z,94761.53
2022-08-02T11:41:06.459Z,94757.69
2022-08-02T11:43:38.211Z,94771.88
2022-08-02T11:46:05.944Z,94776.69
2022-08-02T11:48:39.229Z,94763.31
2022-08-02T11:51:17.663Z,94745.19
2022-08-02T11:53:58.936Z,94787.25
2022-08-02T11:56:34.591Z,94736.97
2022-08-02T11:59:10.511Z,94765.88
2022-08-02T12:01:46.184Z,94776.53
2022-08-02T12:04:19.413Z,94760.38
2022-08-02T12:06:58.833Z,94761.44
2022-08-02T12:09:28.932Z,94757.22
2022-08-02T12:11:57.547Z,94744.53
2022-08-02T12:14:28.040Z,94758.53
2022-08-02T12:17:13.738Z,94763.47
2022-08-02T12:19:42.718Z,94755.81
2022-08-02T12:22:27.280Z,94761.38
2022-08-02T12:24:57.093Z,94737.97
2022-08-02T12:27:37.858Z,94756.75
2022-08-02T12:30:14.235Z,94752.16
2022-08-02T12:32:42.494Z,94737.09
2022-08-02T12:35:14.454Z,94767.28
2022-08-02T12:37:53.355Z,94730.25
2022-08-02T12:40:29.761Z,94721.94
2022-08-02T12:43:00.702Z,94748.81
2022-08-02T12:45:40.813Z,94746.88
2022-08-02T12:48:08.723Z,94748.97
2022-08-02T12:50:37.807Z,94738.75
2022-08-02T12:53:10.840Z,94763.28
2022-08-02T12:56:02.024Z,94746.25
2022-08-02T12:58:49.738Z,94716.19
2022-08-02T13:01:27.754Z,94730.00
2022-08-02T13:04:09.059Z,94723.56
2022-08-02T13:06:43.890Z,94715.16
2022-08-02T13:09:17.287Z,94714.81
2022-08-02T13:11:45.193Z,94726.06
2022-08-02T13:14:14.335Z,94700.41
2022-08-02T13:16:43.290Z,94730.13
2022-08-02T13:19:10.478Z,94726.81
2022-08-02T13:21:41.157Z,94742.03
2022-08-02T13:24:40.250Z,94716.69
2022-08-02T13:27:11.965Z,94720.34
2022-08-02T13:29:39.015Z,94746.84
2022-08-02T13:32:06.285Z,94726.16
2022-08-02T13:34:33.584Z,94719.81
2022-08-02T13:37:00.755Z,94714.34
2022-08-02T13:39:27.899Z,94702.31
2022-08-02T13:42:05.702Z,94690.31
2022-08-02T13:44:34.430Z,94693.81
2022-08-02T13:47:26.677Z,94702.88
2022-08-02T13:50:17.479Z,94691.41
2022-08-02T13:53:16.010Z,94674.50
2022-08-02T13:55:52.237Z,94702.78
2022-08-02T13:58:24.876Z,94684.09
2022-08-02T14:00:52.022Z,94703.06
2022-08-02T14:04:08.528Z,94676.72
2022-08-02T14:06:30.623Z,94685.53
2022-08-02T14:09:00.519Z,94676.88
2022-08-02T14:11:31.190Z,94713.31
2022-08-02T14:13:59.059Z,94696.09
2022-08-02T14:16:33.123Z,94664.41
2022-08-02T14:19:00.651Z,94686.97
2022-08-02T14:21:27.852Z,94674.19
2022-08-02T14:23:54.962Z,94706.72
2022-08-02T14:26:26.965Z,94672.06
2022-08-02T14:28:59.739Z,94683.91
2022-08-02T14:31:26.813Z,94667.34
2022-08-02T14:33:53.953Z,94692.22
2022-08-02T14:36:31.594Z,94683.94
2022-08-02T14:38:58.641Z,94691.28
2022-08-02T14:41:25.899Z,94662.94
2022-08-02T14:44:04.795Z,94657.34
2022-08-02T14:46:34.509Z,94702.50
2022-08-02T14:49:03.751Z,94685.22
2022-08-02T14:51:32.109Z,94676.38
2022-08-02T14:54:02.390Z,94653.69
2022-08-02T14:59:35.322Z,94663.16
2022-08-02T15:02:25.876Z,94670.06
2022-08-02T15:04:53.132Z,94687.16
2022-08-02T15:07:20.593Z,94678.97
2022-08-02T15:09:48.914Z,94652.78
2022-08-02T15:12:19.118Z,94642.75
2022-08-02T15:17:13.694Z,94681.22
2022-08-02T15:19:58.016Z,94686.41
2022-08-02T15:22:28.021Z,94690.41
2022-08-02T15:24:55.913Z,94686.81
2022-08-02T15:27:22.949Z,94695.72
2022-08-02T15:29:50.064Z,94689.75
2022-08-02T15:32:20.577Z,94690.88
2022-08-02T15:34:47.752Z,94698.28
2022-08-02T15:37:14.536Z,94682.66
2022-08-02T15:39:41.277Z,94687.66
2022-08-02T15:42:08.185Z,94700.97
2022-08-02T15:44:35.012Z,94696.78
2022-08-02T15:47:02.025Z,94694.75
2022-08-02T15:49:28.938Z,94684.13
2022-08-02T15:51:55.938Z,94683.00
2022-08-02T15:54:22.862Z,94682.13
2022-08-02T15:56:49.872Z,94689.97
2022-08-02T15:59:16.772Z,94690.25
2022-08-02T16:01:47.581Z,94681.09
2022-08-02T16:04:16.293Z,94690.16
2022-08-02T16:06:43.927Z,94686.31
2022-08-02T16:09:10.994Z,94686.09
2022-08-02T16:11:38.324Z,94682.16
2022-08-02T16:14:05.320Z,94679.41
2022-08-02T16:16:36.151Z,94675.50
2022-08-02T16:19:46.547Z,94676.72
2022-08-02T16:21:53.491Z,94669.25
2022-08-02T16:24:21.426Z,94670.44
2022-08-02T16:26:48.661Z,94676.22
2022-08-02T16:29:19.295Z,94676.16
2022-08-02T16:31:48.268Z,94677.72
2022-08-02T16:34:16.434Z,94672.72
2022-08-02T16:36:43.725Z,94677.75
2022-08-02T16:39:10.639Z,94668.84
2022-08-02T16:41:51.036Z,94674.38
2022-08-02T16:44:29.130Z,94668.94
2022-08-02T16:47:01.147Z,94675.22
2022-08-02T16:50:06.752Z,94671.81
2022-08-02T16:52:20.004Z,94655.66
2022-08-02T16:54:49.906Z,94675.38
2022-08-02T16:57:19.833Z,94661.25
2022-08-02T16:59:57.772Z,94658.47
2022-08-02T17:02:26.542Z,94656.88
2022-08-02T17:04:54.609Z,94647.50
2022-08-02T17:08:06.132Z,94659.50
2022-08-02T17:10:09.006Z,94656.13
2022-08-02T17:12:36.507Z,94664.38
2022-08-02T17:16:07.942Z,94673.84
2022-08-02T17:17:51.513Z,94658.38
2022-08-02T17:20:20.744Z,94664.00
2022-08-02T17:22:47.829Z,94671.09
2022-08-02T17:25:17.604Z,94676.16
2022-08-02T17:27:45.064Z,94666.72
2022-08-02T17:30:13.449Z,94667.31
2022-08-02T17:32:40.481Z,94675.94
2022-08-02T17:35:15.691Z,94673.03
2022-08-02T17:37:54.423Z,94668.47
2022-08-02T17:40:26.577Z,94676.59
2022-08-02T17:42:53.329Z,94688.84
2022-08-02T17:45:25.765Z,94686.28
2022-08-02T17:48:04.753Z,94689.53
2022-08-02T17:50:34.003Z,94685.06
2022-08-02T17:53:01.404Z,94691.50
2022-08-02T17:55:31.006Z,94684.97
2022-08-02T17:57:59.309Z,94689.44
2022-08-02T18:00:34.457Z,94695.78
2022-08-02T18:03:05.798Z,94690.84
2022-08-02T18:08:24.161Z,94700.91
2022-08-02T18:10:55.857Z,94687.59
2022-08-02T18:13:23.617Z,94689.88
2022-08-02T18:15:59.347Z,94696.19
2022-08-02T18:18:29.737Z,94677.59
2022-08-02T18:20:57.504Z,94684.66
2022-08-02T18:23:24.473Z,94686.41
2022-08-02T18:25:55.175Z,94682.41
2022-08-02T18:28:26.687Z,94685.41
2022-08-02T18:30:54.122Z,94689.22
2022-08-02T18:33:54.618Z,94693.31
2022-08-02T18:36:10.194Z,94692.25
2022-08-02T18:38:41.076Z,94688.19
2022-08-02T18:41:12.960Z,94703.03
2022-08-02T18:43:43.737Z,94700.84
2022-08-02T18:46:15.980Z,94703.25
2022-08-02T18:48:46.411Z,94703.91
2022-08-02T18:51:15.148Z,94699.59
2022-08-02T18:53:43.037Z,94694.50
2022-08-02T18:56:19.777Z,94696.31
2022-08-02T18:58:55.950Z,94698.13
2022-08-02T19:01:32.090Z,94704.47
2022-08-02T19:04:02.832Z,94697.66
2022-08-02T19:06:30.116Z,94713.94
2022-08-02T19:09:04.925Z,94712.84
2022-08-02T19:11:35.339Z,94720.56
2022-08-02T19:14:02.429Z,94717.84
2022-08-02T19:16:37.097Z,94720.19
2022-08-02T19:19:06.467Z,94714.72
2022-08-02T19:22:26.582Z,94723.97
2022-08-02T19:24:20.630Z,94720.28
2022-08-02T19:26:51.831Z,94727.72
2022-08-02T19:29:42.370Z,94725.41
2022-08-02T19:32:10.409Z,94725.94
2022-08-02T19:34:56.127Z,94730.69
2022-08-02T19:37:23.113Z,94736.03
2022-08-02T19:39:50.683Z,94737.66
2022-08-02T19:42:18.769Z,94734.88
2022-08-02T19:44:46.494Z,94745.50
2022-08-02T19:47:19.290Z,94737.13
2022-08-02T19:49:48.796Z,94742.50
2022-08-02T19:52:21.652Z,94743.16
2022-08-02T19:54:54.291Z,94747.41
2022-08-02T19:57:23.500Z,94739.22
2022-08-02T19:59:54.006Z,94735.41
2022-08-02T20:02:21.336Z,94735.09
2022-08-02T20:04:50.206Z,94742.88
2022-08-02T20:07:54.580Z,94743.13
2022-08-02T20:10:11.137Z,94737.31
2022-08-02T20:12:40.211Z,94742.69
2022-08-02T20:15:14.633Z,94741.63
2022-08-02T20:17:47.315Z,94733.34
2022-08-02T20:20:15.237Z,94733.13
2022-08-02T20:23:00.926Z,94747.56
2022-08-02T20:25:48.734Z,94743.34
2022-08-02T20:28:15.582Z,94741.59
2022-08-02T20:30:42.834Z,94739.25
2022-08-02T20:33:21.228Z,94736.81
2022-08-02T20:35:49.698Z,94739.94
2022-08-02T20:38:16.570Z,94741.69
2022-08-02T20:40:43.888Z,94737.00
2022-08-02T20:43:10.720Z,94738.38
2022-08-02T20:45:37.557Z,94741.06
2022-08-02T20:48:04.853Z,94732.81
2022-08-02T20:50:50.838Z,94731.06
2022-08-02T20:53:23.806Z,94731.75
2022-08-02T20:55:54.738Z,94740.06
2022-08-02T20:58:27.074Z,94739.59
2022-08-02T21:00:58.805Z,94734.34
2022-08-02T21:03:38.697Z,94734.78
2022-08-02T21:06:09.666Z,94731.44
2022-08-02T21:08:38.460Z,94734.56
2022-08-02T21:11:09.258Z,94742.59
2022-08-02T21:13:46.643Z,94740.84
2022-08-02T21:16:18.478Z,94730.59
2022-08-02T21:18:48.497Z,94734.00
2022-08-02T21:21:16.743Z,94734.41
2022-08-02T21:23:48.306Z,94731.13
2022-08-02T21:26:25.711Z,94731.47
2022-08-02T21:28:55.832Z,94732.22
2022-08-02T21:31:22.706Z,94720.97
2022-08-02T21:33:58.565Z,94719.63
2022-08-02T21:36:32.699Z,94732.47
2022-08-02T21:39:09.082Z,94723.56
2022-08-02T21:41:46.709Z,94729.34
2022-08-02T21:44:16.545Z,94726.28
2022-08-02T21:46:49.254Z,94722.72
2022-08-02T21:49:27.150Z,94732.88
2022-08-02T21:52:12.696Z,94729.59
2022-08-02T21:54:40.104Z,94731.47
2022-08-02T21:57:15.686Z,94736.69
2022-08-02T21:59:45.951Z,94736.19
2022-08-02T22:02:14.429Z,94734.09
2022-08-02T22:04:47.854Z,94732.53
2022-08-02T22:07:23.973Z,94744.28
2022-08-02T22:09:52.738Z,94738.59
2022-08-02T22:12:20.272Z,94749.91
2022-08-02T22:14:54.238Z,94738.47
2022-08-02T22:17:51.317Z,94750.44
2022-08-02T22:20:20.192Z,94747.63
2022-08-02T22:23:04.077Z,94754.47
2022-08-02T22:25:39.632Z,94763.56
2022-08-02T22:30:56.857Z,94752.75
2022-08-02T22:33:47.101Z,94762.59
2022-08-02T22:36:33.589Z,94771.06
2022-08-02T22:39:02.011Z,94756.06
2022-08-02T22:42:01.071Z,94771.34
2022-08-02T22:44:16.901Z,94773.91
2022-08-02T22:46:45.513Z,94769.72
2022-08-02T22:49:17.659Z,94774.44
2022-08-02T22:51:59.555Z,94770.50
2022-08-02T22:54:26.327Z,94768.97
2022-08-02T22:56:53.350Z,94763.56
2022-08-02T22:58:43.167Z,94694.78
2022-08-02T22:59:10.425Z,94755.41
2022-08-02T22:59:20.167Z,94764.22
2022-08-02T23:02:05.677Z,94758.56
2022-08-02T23:04:32.738Z,94766.75
2022-08-02T23:06:59.578Z,94757.41
2022-08-02T23:09:26.458Z,94758.75
2022-08-02T23:11:53.430Z,94764.19
2022-08-02T23:14:20.453Z,94761.47
2022-08-02T23:17:05.526Z,94747.16
2022-08-02T23:19:50.594Z,94751.72
2022-08-02T23:22:19.548Z,94751.97
2022-08-02T23:24:46.443Z,94751.09
2022-08-02T23:27:13.352Z,94752.13
2022-08-02T23:29:40.138Z,94758.25
2022-08-02T23:32:07.059Z,94763.13
2022-08-02T23:34:34.747Z,94763.53
2022-08-02T23:37:04.027Z,94756.94
2022-08-02T23:39:32.262Z,94757.34
2022-08-02T23:41:59.213Z,94757.22
2022-08-02T23:44:26.921Z,94749.47
2022-08-02T23:46:55.492Z,94747.91
2022-08-02T23:49:23.818Z,94760.78
2022-08-02T23:51:51.646Z,94753.59
2022-08-02T23:54:19.561Z,94757.91
2022-08-02T23:56:46.656Z,94749.88
2022-08-02T23:59:14.553Z,94752.66
